Terminal Aerodrome Forecast
Issued by NWS Northern Indiana

Home | Current Version | Previous Version | Graphics & Text | Print | Product List | Glossary On
Versions: 1 2 3 4 5 6 7 8 9 10 11 12 13 14 15 16 17 18 19
528
FTUS43 KIWX 242054 AAA
TAFFWA
TAF AMD
KFWA 242054Z 2421/2518 19008KT 4SM TSRA SCT035 BKN060CB
      TEMPO 2421/2422 2SM +TSRA BKN030CB
     FM250200 20007KT P6SM SCT030 BKN090
     FM251200 23008KT P6SM BKN040=

USA.gov is the U.S. government's official web portal to all federal, state and local government web resources and services.